sensor_id;sensor_type;location;lat;lon;timestamp;P1;durP1;ratioP1;P2;durP2;ratioP2
71503;SDS011;59323;50.874;7.028;2023-09-18T00:00:53;11.27;;;4.70;;
71503;SDS011;59323;50.874;7.028;2023-09-18T00:03:19;9.97;;;4.97;;
71503;SDS011;59323;50.874;7.028;2023-09-18T00:05:46;11.68;;;4.95;;
71503;SDS011;59323;50.874;7.028;2023-09-18T00:08:13;11.48;;;4.20;;
71503;SDS011;59323;50.874;7.028;2023-09-18T00:10:39;10.50;;;4.53;;
71503;SDS011;59323;50.874;7.028;2023-09-18T00:13:05;8.05;;;4.35;;
71503;SDS011;59323;50.874;7.028;2023-09-18T00:15:31;10.30;;;4.47;;
71503;SDS011;59323;50.874;7.028;2023-09-18T00:17:56;10.23;;;4.17;;
71503;SDS011;59323;50.874;7.028;2023-09-18T00:20:22;9.73;;;4.57;;
71503;SDS011;59323;50.874;7.028;2023-09-18T00:22:52;9.32;;;4.90;;
71503;SDS011;59323;50.874;7.028;2023-09-18T00:25:21;11.02;;;4.75;;
71503;SDS011;59323;50.874;7.028;2023-09-18T00:27:47;10.05;;;4.60;;
71503;SDS011;59323;50.874;7.028;2023-09-18T00:30:12;10.77;;;4.50;;
71503;SDS011;59323;50.874;7.028;2023-09-18T00:32:37;8.93;;;4.40;;
71503;SDS011;59323;50.874;7.028;2023-09-18T00:35:03;11.15;;;4.90;;
71503;SDS011;59323;50.874;7.028;2023-09-18T00:37:29;11.40;;;4.37;;
71503;SDS011;59323;50.874;7.028;2023-09-18T00:39:54;9.02;;;4.05;;
71503;SDS011;59323;50.874;7.028;2023-09-18T00:42:20;12.93;;;4.70;;
71503;SDS011;59323;50.874;7.028;2023-09-18T00:44:47;9.02;;;4.57;;
71503;SDS011;59323;50.874;7.028;2023-09-18T00:47:14;11.10;;;4.50;;
71503;SDS011;59323;50.874;7.028;2023-09-18T00:49:41;11.50;;;3.90;;
71503;SDS011;59323;50.874;7.028;2023-09-18T00:52:09;10.68;;;4.03;;
71503;SDS011;59323;50.874;7.028;2023-09-18T00:54:36;9.27;;;4.28;;
71503;SDS011;59323;50.874;7.028;2023-09-18T00:57:04;8.60;;;4.30;;
71503;SDS011;59323;50.874;7.028;2023-09-18T00:59:30;10.95;;;4.43;;
71503;SDS011;59323;50.874;7.028;2023-09-18T01:01:56;12.23;;;4.00;;
71503;SDS011;59323;50.874;7.028;2023-09-18T01:04:21;9.95;;;4.38;;
71503;SDS011;59323;50.874;7.028;2023-09-18T01:06:47;8.90;;;4.23;;
71503;SDS011;59323;50.874;7.028;2023-09-18T01:09:15;9.50;;;4.65;;
71503;SDS011;59323;50.874;7.028;2023-09-18T01:17:03;9.23;;;4.10;;
71503;SDS011;59323;50.874;7.028;2023-09-18T01:19:41;11.63;;;4.37;;
71503;SDS011;59323;50.874;7.028;2023-09-18T01:22:08;9.77;;;4.30;;
71503;SDS011;59323;50.874;7.028;2023-09-18T01:24:35;9.05;;;3.80;;
71503;SDS011;59323;50.874;7.028;2023-09-18T01:27:02;12.00;;;3.90;;
71503;SDS011;59323;50.874;7.028;2023-09-18T01:29:29;9.48;;;4.07;;
71503;SDS011;59323;50.874;7.028;2023-09-18T01:31:55;7.73;;;4.40;;
71503;SDS011;59323;50.874;7.028;2023-09-18T01:34:25;7.50;;;3.95;;
71503;SDS011;59323;50.874;7.028;2023-09-18T01:36:53;9.68;;;4.15;;
71503;SDS011;59323;50.874;7.028;2023-09-18T01:39:21;11.02;;;3.75;;
71503;SDS011;59323;50.874;7.028;2023-09-18T01:41:48;9.20;;;4.03;;
71503;SDS011;59323;50.874;7.028;2023-09-18T01:44:15;10.90;;;4.07;;
71503;SDS011;59323;50.874;7.028;2023-09-18T01:46:40;8.73;;;4.13;;
71503;SDS011;59323;50.874;7.028;2023-09-18T01:49:07;10.10;;;4.13;;
71503;SDS011;59323;50.874;7.028;2023-09-18T01:51:33;10.17;;;3.90;;
71503;SDS011;59323;50.874;7.028;2023-09-18T01:54:02;12.13;;;4.03;;
71503;SDS011;59323;50.874;7.028;2023-09-18T01:56:28;11.75;;;4.28;;
71503;SDS011;59323;50.874;7.028;2023-09-18T01:58:54;10.35;;;4.10;;
71503;SDS011;59323;50.874;7.028;2023-09-18T02:01:19;11.83;;;3.93;;
71503;SDS011;59323;50.874;7.028;2023-09-18T02:03:45;10.17;;;4.70;;
71503;SDS011;59323;50.874;7.028;2023-09-18T02:06:11;9.73;;;4.53;;
71503;SDS011;59323;50.874;7.028;2023-09-18T02:08:36;7.17;;;4.13;;
71503;SDS011;59323;50.874;7.028;2023-09-18T02:11:01;11.40;;;4.23;;
71503;SDS011;59323;50.874;7.028;2023-09-18T02:13:28;12.50;;;4.72;;
71503;SDS011;59323;50.874;7.028;2023-09-18T02:15:54;15.18;;;4.90;;
71503;SDS011;59323;50.874;7.028;2023-09-18T02:18:20;10.15;;;4.75;;
71503;SDS011;59323;50.874;7.028;2023-09-18T02:20:45;10.00;;;4.57;;
71503;SDS011;59323;50.874;7.028;2023-09-18T02:23:14;9.23;;;4.45;;
71503;SDS011;59323;50.874;7.028;2023-09-18T02:25:40;11.60;;;4.07;;
71503;SDS011;59323;50.874;7.028;2023-09-18T02:28:06;9.65;;;4.25;;
71503;SDS011;59323;50.874;7.028;2023-09-18T02:30:32;11.80;;;4.63;;
71503;SDS011;59323;50.874;7.028;2023-09-18T02:32:57;11.70;;;4.95;;
71503;SDS011;59323;50.874;7.028;2023-09-18T02:35:24;10.80;;;4.50;;
71503;SDS011;59323;50.874;7.028;2023-09-18T02:37:50;11.50;;;4.70;;
71503;SDS011;59323;50.874;7.028;2023-09-18T02:40:15;9.77;;;4.63;;
71503;SDS011;59323;50.874;7.028;2023-09-18T02:42:41;9.93;;;4.10;;
71503;SDS011;59323;50.874;7.028;2023-09-18T02:45:06;10.67;;;4.80;;
71503;SDS011;59323;50.874;7.028;2023-09-18T02:47:33;11.27;;;5.00;;
71503;SDS011;59323;50.874;7.028;2023-09-18T02:49:59;9.93;;;3.97;;
71503;SDS011;59323;50.874;7.028;2023-09-18T02:52:24;8.43;;;3.93;;
71503;SDS011;59323;50.874;7.028;2023-09-18T02:54:49;9.43;;;4.40;;
71503;SDS011;59323;50.874;7.028;2023-09-18T02:57:15;12.17;;;4.33;;
71503;SDS011;59323;50.874;7.028;2023-09-18T02:59:40;12.37;;;5.17;;
71503;SDS011;59323;50.874;7.028;2023-09-18T03:02:06;10.87;;;4.30;;
71503;SDS011;59323;50.874;7.028;2023-09-18T03:04:31;12.90;;;4.80;;
71503;SDS011;59323;50.874;7.028;2023-09-18T03:06:56;12.33;;;4.83;;
71503;SDS011;59323;50.874;7.028;2023-09-18T03:09:22;7.95;;;4.47;;
71503;SDS011;59323;50.874;7.028;2023-09-18T03:11:47;8.73;;;4.47;;
71503;SDS011;59323;50.874;7.028;2023-09-18T03:14:13;9.37;;;4.83;;
71503;SDS011;59323;50.874;7.028;2023-09-18T03:16:38;14.10;;;5.17;;
71503;SDS011;59323;50.874;7.028;2023-09-18T03:19:03;12.10;;;4.93;;
71503;SDS011;59323;50.874;7.028;2023-09-18T03:21:29;11.63;;;4.67;;
71503;SDS011;59323;50.874;7.028;2023-09-18T03:23:56;14.02;;;4.93;;
71503;SDS011;59323;50.874;7.028;2023-09-18T03:26:22;10.90;;;4.18;;
71503;SDS011;59323;50.874;7.028;2023-09-18T03:28:48;10.93;;;4.50;;
71503;SDS011;59323;50.874;7.028;2023-09-18T03:31:13;11.53;;;4.53;;
71503;SDS011;59323;50.874;7.028;2023-09-18T03:33:38;11.40;;;4.23;;
71503;SDS011;59323;50.874;7.028;2023-09-18T03:36:04;9.73;;;4.10;;
71503;SDS011;59323;50.874;7.028;2023-09-18T03:38:30;11.38;;;4.75;;
71503;SDS011;59323;50.874;7.028;2023-09-18T03:40:55;12.40;;;4.23;;
71503;SDS011;59323;50.874;7.028;2023-09-18T03:43:20;11.87;;;4.23;;
71503;SDS011;59323;50.874;7.028;2023-09-18T03:45:46;12.25;;;4.30;;
71503;SDS011;59323;50.874;7.028;2023-09-18T03:48:12;9.40;;;4.17;;
71503;SDS011;59323;50.874;7.028;2023-09-18T03:50:37;14.38;;;5.32;;
71503;SDS011;59323;50.874;7.028;2023-09-18T03:53:05;10.37;;;4.03;;
71503;SDS011;59323;50.874;7.028;2023-09-18T03:55:31;9.45;;;4.13;;
71503;SDS011;59323;50.874;7.028;2023-09-18T03:57:56;10.33;;;3.90;;
71503;SDS011;59323;50.874;7.028;2023-09-18T04:00:22;10.13;;;4.10;;
71503;SDS011;59323;50.874;7.028;2023-09-18T04:02:48;8.85;;;4.03;;
71503;SDS011;59323;50.874;7.028;2023-09-18T04:05:13;11.77;;;4.17;;
71503;SDS011;59323;50.874;7.028;2023-09-18T04:07:38;12.57;;;4.43;;
71503;SDS011;59323;50.874;7.028;2023-09-18T04:10:04;12.02;;;3.85;;
71503;SDS011;59323;50.874;7.028;2023-09-18T04:12:30;9.20;;;4.07;;
71503;SDS011;59323;50.874;7.028;2023-09-18T04:14:56;12.20;;;4.40;;
71503;SDS011;59323;50.874;7.028;2023-09-18T04:17:22;12.17;;;4.40;;
71503;SDS011;59323;50.874;7.028;2023-09-18T04:19:47;10.53;;;4.17;;
71503;SDS011;59323;50.874;7.028;2023-09-18T04:22:13;12.67;;;4.10;;
71503;SDS011;59323;50.874;7.028;2023-09-18T04:24:38;12.80;;;4.43;;
71503;SDS011;59323;50.874;7.028;2023-09-18T04:27:04;12.15;;;3.75;;
71503;SDS011;59323;50.874;7.028;2023-09-18T04:29:29;9.53;;;3.37;;
71503;SDS011;59323;50.874;7.028;2023-09-18T04:31:54;16.30;;;4.33;;
71503;SDS011;59323;50.874;7.028;2023-09-18T04:34:20;13.93;;;3.97;;
71503;SDS011;59323;50.874;7.028;2023-09-18T04:36:46;13.27;;;4.13;;
71503;SDS011;59323;50.874;7.028;2023-09-18T04:39:18;14.18;;;4.00;;
71503;SDS011;59323;50.874;7.028;2023-09-18T04:41:43;15.67;;;4.07;;
71503;SDS011;59323;50.874;7.028;2023-09-18T04:44:12;11.40;;;3.10;;
71503;SDS011;59323;50.874;7.028;2023-09-18T04:46:39;10.88;;;3.60;;
71503;SDS011;59323;50.874;7.028;2023-09-18T04:49:10;12.55;;;3.72;;
71503;SDS011;59323;50.874;7.028;2023-09-18T04:51:36;13.20;;;3.95;;
71503;SDS011;59323;50.874;7.028;2023-09-18T04:54:04;12.13;;;3.77;;
71503;SDS011;59323;50.874;7.028;2023-09-18T04:56:29;14.85;;;4.13;;
71503;SDS011;59323;50.874;7.028;2023-09-18T04:58:55;19.30;;;3.70;;
71503;SDS011;59323;50.874;7.028;2023-09-18T05:01:20;12.53;;;3.43;;
71503;SDS011;59323;50.874;7.028;2023-09-18T05:03:49;10.23;;;3.20;;
71503;SDS011;59323;50.874;7.028;2023-09-18T05:06:15;13.10;;;3.40;;
71503;SDS011;59323;50.874;7.028;2023-09-18T05:08:41;10.03;;;3.20;;
71503;SDS011;59323;50.874;7.028;2023-09-18T05:11:08;11.07;;;2.80;;
71503;SDS011;59323;50.874;7.028;2023-09-18T05:13:33;10.07;;;2.97;;
71503;SDS011;59323;50.874;7.028;2023-09-18T05:15:58;11.85;;;3.10;;
71503;SDS011;59323;50.874;7.028;2023-09-18T05:18:25;12.30;;;3.27;;
71503;SDS011;59323;50.874;7.028;2023-09-18T05:20:51;11.25;;;2.90;;
71503;SDS011;59323;50.874;7.028;2023-09-18T05:23:17;13.23;;;3.03;;
71503;SDS011;59323;50.874;7.028;2023-09-18T05:25:43;9.35;;;3.60;;
71503;SDS011;59323;50.874;7.028;2023-09-18T05:28:09;12.05;;;3.42;;
71503;SDS011;59323;50.874;7.028;2023-09-18T05:30:37;9.23;;;3.20;;
71503;SDS011;59323;50.874;7.028;2023-09-18T05:33:06;10.23;;;3.30;;
71503;SDS011;59323;50.874;7.028;2023-09-18T05:35:39;14.50;;;3.60;;
71503;SDS011;59323;50.874;7.028;2023-09-18T05:38:08;9.32;;;3.05;;
71503;SDS011;59323;50.874;7.028;2023-09-18T05:40:36;13.05;;;3.85;;
71503;SDS011;59323;50.874;7.028;2023-09-18T05:43:01;9.07;;;3.20;;
71503;SDS011;59323;50.874;7.028;2023-09-18T05:45:27;9.88;;;3.08;;
71503;SDS011;59323;50.874;7.028;2023-09-18T05:47:53;9.57;;;3.40;;
71503;SDS011;59323;50.874;7.028;2023-09-18T05:50:19;14.32;;;3.63;;
71503;SDS011;59323;50.874;7.028;2023-09-18T05:52:45;14.90;;;4.33;;
71503;SDS011;59323;50.874;7.028;2023-09-18T05:55:11;10.50;;;2.90;;
71503;SDS011;59323;50.874;7.028;2023-09-18T05:57:37;12.00;;;3.13;;
71503;SDS011;59323;50.874;7.028;2023-09-18T06:00:03;11.47;;;3.13;;
71503;SDS011;59323;50.874;7.028;2023-09-18T06:02:30;9.00;;;2.95;;
71503;SDS011;59323;50.874;7.028;2023-09-18T06:04:55;9.73;;;2.90;;
71503;SDS011;59323;50.874;7.028;2023-09-18T06:07:26;9.63;;;3.35;;
71503;SDS011;59323;50.874;7.028;2023-09-18T06:09:52;10.40;;;3.38;;
71503;SDS011;59323;50.874;7.028;2023-09-18T06:12:20;11.20;;;2.90;;
71503;SDS011;59323;50.874;7.028;2023-09-18T06:14:46;10.07;;;3.03;;
71503;SDS011;59323;50.874;7.028;2023-09-18T06:17:13;11.23;;;3.00;;
71503;SDS011;59323;50.874;7.028;2023-09-18T06:19:40;10.90;;;3.00;;
71503;SDS011;59323;50.874;7.028;2023-09-18T06:22:05;7.70;;;2.53;;
71503;SDS011;59323;50.874;7.028;2023-09-18T06:24:32;11.18;;;3.08;;
71503;SDS011;59323;50.874;7.028;2023-09-18T06:26:57;9.90;;;2.63;;
71503;SDS011;59323;50.874;7.028;2023-09-18T06:29:23;7.22;;;2.20;;
71503;SDS011;59323;50.874;7.028;2023-09-18T06:31:49;10.47;;;2.60;;
71503;SDS011;59323;50.874;7.028;2023-09-18T06:34:15;9.80;;;2.65;;
71503;SDS011;59323;50.874;7.028;2023-09-18T06:36:40;8.23;;;2.20;;
71503;SDS011;59323;50.874;7.028;2023-09-18T06:39:06;7.23;;;2.23;;
71503;SDS011;59323;50.874;7.028;2023-09-18T06:41:32;7.63;;;2.88;;
71503;SDS011;59323;50.874;7.028;2023-09-18T06:43:57;7.50;;;2.10;;
71503;SDS011;59323;50.874;7.028;2023-09-18T06:46:23;7.80;;;2.03;;
71503;SDS011;59323;50.874;7.028;2023-09-18T06:48:49;5.93;;;2.00;;
71503;SDS011;59323;50.874;7.028;2023-09-18T06:51:16;8.77;;;2.22;;
71503;SDS011;59323;50.874;7.028;2023-09-18T06:53:43;6.73;;;1.93;;
71503;SDS011;59323;50.874;7.028;2023-09-18T06:56:08;8.45;;;1.90;;
71503;SDS011;59323;50.874;7.028;2023-09-18T06:58:34;8.98;;;2.13;;
71503;SDS011;59323;50.874;7.028;2023-09-18T07:01:00;9.82;;;2.00;;
71503;SDS011;59323;50.874;7.028;2023-09-18T07:03:26;6.00;;;1.87;;
71503;SDS011;59323;50.874;7.028;2023-09-18T07:05:51;8.13;;;1.60;;
71503;SDS011;59323;50.874;7.028;2023-09-18T07:08:16;10.07;;;1.73;;
71503;SDS011;59323;50.874;7.028;2023-09-18T07:10:44;4.90;;;1.70;;
71503;SDS011;59323;50.874;7.028;2023-09-18T07:13:10;7.97;;;1.70;;
71503;SDS011;59323;50.874;7.028;2023-09-18T07:15:36;4.32;;;1.73;;
71503;SDS011;59323;50.874;7.028;2023-09-18T07:18:02;5.37;;;1.70;;
71503;SDS011;59323;50.874;7.028;2023-09-18T07:20:28;7.18;;;1.70;;
71503;SDS011;59323;50.874;7.028;2023-09-18T07:22:53;8.30;;;1.83;;
71503;SDS011;59323;50.874;7.028;2023-09-18T07:25:19;8.00;;;2.00;;
71503;SDS011;59323;50.874;7.028;2023-09-18T07:27:44;7.40;;;1.83;;
71503;SDS011;59323;50.874;7.028;2023-09-18T07:30:10;8.13;;;2.27;;
71503;SDS011;59323;50.874;7.028;2023-09-18T07:32:36;7.50;;;1.75;;
71503;SDS011;59323;50.874;7.028;2023-09-18T07:35:02;7.80;;;1.73;;
71503;SDS011;59323;50.874;7.028;2023-09-18T07:37:31;5.43;;;2.08;;
71503;SDS011;59323;50.874;7.028;2023-09-18T07:39:56;5.97;;;1.77;;
71503;SDS011;59323;50.874;7.028;2023-09-18T07:42:25;4.20;;;1.20;;
71503;SDS011;59323;50.874;7.028;2023-09-18T07:44:51;7.07;;;1.38;;
71503;SDS011;59323;50.874;7.028;2023-09-18T07:47:16;5.50;;;1.57;;
71503;SDS011;59323;50.874;7.028;2023-09-18T07:49:42;7.00;;;2.10;;
71503;SDS011;59323;50.874;7.028;2023-09-18T07:52:07;4.20;;;1.30;;
71503;SDS011;59323;50.874;7.028;2023-09-18T07:54:32;6.77;;;1.60;;
71503;SDS011;59323;50.874;7.028;2023-09-18T07:56:58;8.45;;;1.73;;
71503;SDS011;59323;50.874;7.028;2023-09-18T07:59:25;7.93;;;2.53;;
71503;SDS011;59323;50.874;7.028;2023-09-18T08:01:51;5.80;;;1.33;;
71503;SDS011;59323;50.874;7.028;2023-09-18T08:04:16;4.40;;;1.90;;
71503;SDS011;59323;50.874;7.028;2023-09-18T08:06:42;3.90;;;1.57;;
71503;SDS011;59323;50.874;7.028;2023-09-18T08:09:07;4.60;;;1.40;;
71503;SDS011;59323;50.874;7.028;2023-09-18T08:11:35;4.50;;;1.30;;
71503;SDS011;59323;50.874;7.028;2023-09-18T08:14:01;4.40;;;1.05;;
71503;SDS011;59323;50.874;7.028;2023-09-18T08:16:28;4.88;;;1.52;;
71503;SDS011;59323;50.874;7.028;2023-09-18T08:18:54;3.30;;;1.27;;
71503;SDS011;59323;50.874;7.028;2023-09-18T08:21:21;5.45;;;1.45;;
71503;SDS011;59323;50.874;7.028;2023-09-18T08:23:49;4.37;;;1.37;;
71503;SDS011;59323;50.874;7.028;2023-09-18T08:26:14;3.20;;;1.27;;
71503;SDS011;59323;50.874;7.028;2023-09-18T08:28:41;4.40;;;1.20;;
71503;SDS011;59323;50.874;7.028;2023-09-18T08:31:09;5.35;;;1.65;;
71503;SDS011;59323;50.874;7.028;2023-09-18T08:33:35;4.68;;;1.20;;
71503;SDS011;59323;50.874;7.028;2023-09-18T08:36:01;5.05;;;1.60;;
71503;SDS011;59323;50.874;7.028;2023-09-18T08:38:27;5.10;;;1.23;;
71503;SDS011;59323;50.874;7.028;2023-09-18T08:40:56;5.32;;;1.90;;
71503;SDS011;59323;50.874;7.028;2023-09-18T08:43:25;3.90;;;1.50;;
71503;SDS011;59323;50.874;7.028;2023-09-18T08:45:52;5.53;;;1.48;;
71503;SDS011;59323;50.874;7.028;2023-09-18T08:48:19;4.50;;;1.40;;
71503;SDS011;59323;50.874;7.028;2023-09-18T08:50:47;4.20;;;1.30;;
71503;SDS011;59323;50.874;7.028;2023-09-18T08:53:13;3.53;;;1.10;;
71503;SDS011;59323;50.874;7.028;2023-09-18T08:55:39;3.70;;;1.13;;
71503;SDS011;59323;50.874;7.028;2023-09-18T08:58:06;5.72;;;1.40;;
71503;SDS011;59323;50.874;7.028;2023-09-18T09:00:33;6.13;;;1.20;;
71503;SDS011;59323;50.874;7.028;2023-09-18T09:03:00;5.82;;;1.50;;
71503;SDS011;59323;50.874;7.028;2023-09-18T09:05:26;7.47;;;1.53;;
71503;SDS011;59323;50.874;7.028;2023-09-18T09:07:52;4.00;;;1.30;;
71503;SDS011;59323;50.874;7.028;2023-09-18T09:10:17;6.00;;;1.40;;
71503;SDS011;59323;50.874;7.028;2023-09-18T09:12:47;4.10;;;1.33;;
71503;SDS011;59323;50.874;7.028;2023-09-18T09:15:43;3.50;;;1.70;;
71503;SDS011;59323;50.874;7.028;2023-09-18T09:18:14;2.70;;;1.38;;
71503;SDS011;59323;50.874;7.028;2023-09-18T09:20:40;6.78;;;1.75;;
71503;SDS011;59323;50.874;7.028;2023-09-18T09:23:07;4.63;;;1.50;;
71503;SDS011;59323;50.874;7.028;2023-09-18T09:25:34;5.07;;;1.83;;
71503;SDS011;59323;50.874;7.028;2023-09-18T09:28:05;7.32;;;1.13;;
71503;SDS011;59323;50.874;7.028;2023-09-18T09:30:35;5.25;;;1.10;;
71503;SDS011;59323;50.874;7.028;2023-09-18T09:33:02;5.22;;;1.45;;
71503;SDS011;59323;50.874;7.028;2023-09-18T09:35:30;5.17;;;1.07;;
71503;SDS011;59323;50.874;7.028;2023-09-18T09:38:01;5.13;;;1.55;;
71503;SDS011;59323;50.874;7.028;2023-09-18T09:40:33;5.07;;;1.30;;
71503;SDS011;59323;50.874;7.028;2023-09-18T09:43:04;5.22;;;1.45;;
71503;SDS011;59323;50.874;7.028;2023-09-18T09:45:35;6.22;;;1.27;;
71503;SDS011;59323;50.874;7.028;2023-09-18T09:48:02;4.23;;;1.30;;
71503;SDS011;59323;50.874;7.028;2023-09-18T09:50:32;4.82;;;1.40;;
71503;SDS011;59323;50.874;7.028;2023-09-18T09:52:58;4.57;;;1.40;;
71503;SDS011;59323;50.874;7.028;2023-09-18T09:55:28;3.75;;;1.33;;
71503;SDS011;59323;50.874;7.028;2023-09-18T10:03:11;4.45;;;1.40;;
71503;SDS011;59323;50.874;7.028;2023-09-18T10:05:39;3.33;;;1.63;;
71503;SDS011;59323;50.874;7.028;2023-09-18T10:08:07;4.93;;;1.38;;
71503;SDS011;59323;50.874;7.028;2023-09-18T10:10:38;6.15;;;1.63;;
71503;SDS011;59323;50.874;7.028;2023-09-18T10:13:15;4.00;;;1.65;;
71503;SDS011;59323;50.874;7.028;2023-09-18T10:15:42;5.00;;;1.25;;
71503;SDS011;59323;50.874;7.028;2023-09-18T10:18:16;4.07;;;1.50;;
71503;SDS011;59323;50.874;7.028;2023-09-18T10:20:47;5.03;;;2.15;;
71503;SDS011;59323;50.874;7.028;2023-09-18T10:23:28;3.38;;;1.15;;
71503;SDS011;59323;50.874;7.028;2023-09-18T10:32:48;5.57;;;1.90;;
71503;SDS011;59323;50.874;7.028;2023-09-18T10:35:49;3.78;;;1.23;;
71503;SDS011;59323;50.874;7.028;2023-09-18T10:38:22;4.63;;;1.40;;
71503;SDS011;59323;50.874;7.028;2023-09-18T10:40:58;5.25;;;1.48;;
71503;SDS011;59323;50.874;7.028;2023-09-18T10:44:00;5.40;;;1.25;;
71503;SDS011;59323;50.874;7.028;2023-09-18T10:46:27;4.70;;;1.40;;
71503;SDS011;59323;50.874;7.028;2023-09-18T10:48:55;2.95;;;1.23;;
71503;SDS011;59323;50.874;7.028;2023-09-18T10:51:24;2.87;;;1.10;;
71503;SDS011;59323;50.874;7.028;2023-09-18T10:56:48;5.38;;;1.60;;
71503;SDS011;59323;50.874;7.028;2023-09-18T10:59:48;5.97;;;1.08;;
71503;SDS011;59323;50.874;7.028;2023-09-18T11:02:22;4.90;;;1.23;;
71503;SDS011;59323;50.874;7.028;2023-09-18T11:05:28;3.33;;;1.37;;
71503;SDS011;59323;50.874;7.028;2023-09-18T11:13:40;4.00;;;1.63;;
71503;SDS011;59323;50.874;7.028;2023-09-18T11:16:16;3.97;;;1.55;;
71503;SDS011;59323;50.874;7.028;2023-09-18T11:18:42;5.03;;;1.23;;
71503;SDS011;59323;50.874;7.028;2023-09-18T11:21:08;5.10;;;1.65;;
71503;SDS011;59323;50.874;7.028;2023-09-18T11:23:35;5.17;;;1.40;;
71503;SDS011;59323;50.874;7.028;2023-09-18T11:26:03;3.35;;;1.38;;
71503;SDS011;59323;50.874;7.028;2023-09-18T11:28:32;4.00;;;1.88;;
71503;SDS011;59323;50.874;7.028;2023-09-18T11:30:58;4.63;;;1.50;;
71503;SDS011;59323;50.874;7.028;2023-09-18T11:33:30;4.68;;;1.20;;
71503;SDS011;59323;50.874;7.028;2023-09-18T11:36:13;5.65;;;1.42;;
71503;SDS011;59323;50.874;7.028;2023-09-18T11:38:56;3.85;;;1.50;;
71503;SDS011;59323;50.874;7.028;2023-09-18T11:41:26;3.13;;;1.38;;
71503;SDS011;59323;50.874;7.028;2023-09-18T11:46:49;3.95;;;1.38;;
71503;SDS011;59323;50.874;7.028;2023-09-18T11:49:32;4.40;;;1.40;;
71503;SDS011;59323;50.874;7.028;2023-09-18T11:51:58;4.13;;;1.42;;
71503;SDS011;59323;50.874;7.028;2023-09-18T11:54:33;4.65;;;1.80;;
71503;SDS011;59323;50.874;7.028;2023-09-18T11:57:03;3.33;;;1.67;;
71503;SDS011;59323;50.874;7.028;2023-09-18T12:02:53;2.83;;;1.40;;
71503;SDS011;59323;50.874;7.028;2023-09-18T12:05:23;4.05;;;1.70;;
71503;SDS011;59323;50.874;7.028;2023-09-18T12:08:03;3.88;;;1.83;;
71503;SDS011;59323;50.874;7.028;2023-09-18T12:13:29;4.20;;;1.40;;
71503;SDS011;59323;50.874;7.028;2023-09-18T12:16:09;10.85;;;1.88;;
71503;SDS011;59323;50.874;7.028;2023-09-18T12:18:44;4.40;;;1.98;;
71503;SDS011;59323;50.874;7.028;2023-09-18T12:21:12;5.05;;;1.52;;
71503;SDS011;59323;50.874;7.028;2023-09-18T12:23:45;3.07;;;1.10;;
71503;SDS011;59323;50.874;7.028;2023-09-18T12:26:17;3.05;;;1.30;;
71503;SDS011;59323;50.874;7.028;2023-09-18T12:28:58;3.38;;;1.90;;
71503;SDS011;59323;50.874;7.028;2023-09-18T12:31:46;4.25;;;1.30;;
71503;SDS011;59323;50.874;7.028;2023-09-18T12:34:14;4.25;;;1.70;;
71503;SDS011;59323;50.874;7.028;2023-09-18T12:36:47;5.27;;;1.50;;
71503;SDS011;59323;50.874;7.028;2023-09-18T12:39:13;4.80;;;2.03;;
71503;SDS011;59323;50.874;7.028;2023-09-18T12:41:41;5.05;;;1.50;;
71503;SDS011;59323;50.874;7.028;2023-09-18T12:44:11;3.72;;;1.60;;
71503;SDS011;59323;50.874;7.028;2023-09-18T12:46:42;5.25;;;1.88;;
71503;SDS011;59323;50.874;7.028;2023-09-18T12:49:18;6.07;;;2.10;;
71503;SDS011;59323;50.874;7.028;2023-09-18T12:52:01;2.47;;;1.30;;
71503;SDS011;59323;50.874;7.028;2023-09-18T13:26:14;2.72;;;1.25;;
71503;SDS011;59323;50.874;7.028;2023-09-18T13:29:05;4.38;;;1.67;;
71503;SDS011;59323;50.874;7.028;2023-09-18T13:31:39;3.67;;;1.43;;
71503;SDS011;59323;50.874;7.028;2023-09-18T13:34:10;3.33;;;1.20;;
71503;SDS011;59323;50.874;7.028;2023-09-18T13:37:27;5.22;;;2.08;;
71503;SDS011;59323;50.874;7.028;2023-09-18T13:43:33;3.75;;;1.95;;
71503;SDS011;59323;50.874;7.028;2023-09-18T13:46:22;3.13;;;1.50;;
71503;SDS011;59323;50.874;7.028;2023-09-18T13:58:32;5.40;;;2.08;;
71503;SDS011;59323;50.874;7.028;2023-09-18T14:01:06;4.70;;;1.53;;
71503;SDS011;59323;50.874;7.028;2023-09-18T14:03:39;4.40;;;1.42;;
71503;SDS011;59323;50.874;7.028;2023-09-18T14:06:06;4.13;;;1.77;;
71503;SDS011;59323;50.874;7.028;2023-09-18T14:08:41;7.60;;;1.60;;
71503;SDS011;59323;50.874;7.028;2023-09-18T14:11:12;3.40;;;1.45;;
71503;SDS011;59323;50.874;7.028;2023-09-18T14:13:49;5.33;;;1.73;;
71503;SDS011;59323;50.874;7.028;2023-09-18T14:16:30;4.95;;;2.00;;
71503;SDS011;59323;50.874;7.028;2023-09-18T14:19:14;5.20;;;1.90;;
71503;SDS011;59323;50.874;7.028;2023-09-18T14:25:21;6.57;;;1.77;;
71503;SDS011;59323;50.874;7.028;2023-09-18T14:27:55;3.83;;;1.40;;
71503;SDS011;59323;50.874;7.028;2023-09-18T14:30:21;3.25;;;1.27;;
71503;SDS011;59323;50.874;7.028;2023-09-18T14:32:54;4.40;;;1.50;;
71503;SDS011;59323;50.874;7.028;2023-09-18T14:35:19;3.78;;;1.55;;
71503;SDS011;59323;50.874;7.028;2023-09-18T14:37:56;5.57;;;1.52;;
71503;SDS011;59323;50.874;7.028;2023-09-18T14:40:21;5.30;;;1.30;;
71503;SDS011;59323;50.874;7.028;2023-09-18T14:42:47;3.42;;;1.17;;
71503;SDS011;59323;50.874;7.028;2023-09-18T14:45:13;3.87;;;1.47;;
71503;SDS011;59323;50.874;7.028;2023-09-18T14:47:39;4.22;;;1.63;;
71503;SDS011;59323;50.874;7.028;2023-09-18T14:50:05;6.50;;;1.80;;
71503;SDS011;59323;50.874;7.028;2023-09-18T14:52:31;3.58;;;1.50;;
71503;SDS011;59323;50.874;7.028;2023-09-18T14:55:33;2.60;;;1.25;;
71503;SDS011;59323;50.874;7.028;2023-09-18T14:57:51;5.73;;;1.97;;
71503;SDS011;59323;50.874;7.028;2023-09-18T15:03:40;3.63;;;1.90;;
71503;SDS011;59323;50.874;7.028;2023-09-18T15:09:21;5.55;;;2.05;;
71503;SDS011;59323;50.874;7.028;2023-09-18T15:11:46;3.50;;;1.50;;
71503;SDS011;59323;50.874;7.028;2023-09-18T15:14:12;4.40;;;1.80;;
71503;SDS011;59323;50.874;7.028;2023-09-18T15:16:37;4.90;;;1.30;;
71503;SDS011;59323;50.874;7.028;2023-09-18T15:19:08;4.13;;;1.27;;
71503;SDS011;59323;50.874;7.028;2023-09-18T15:21:35;3.80;;;1.55;;
71503;SDS011;59323;50.874;7.028;2023-09-18T15:24:02;4.32;;;1.23;;
71503;SDS011;59323;50.874;7.028;2023-09-18T15:27:22;5.93;;;1.67;;
71503;SDS011;59323;50.874;7.028;2023-09-18T15:29:37;4.25;;;1.70;;
71503;SDS011;59323;50.874;7.028;2023-09-18T15:32:08;6.90;;;1.73;;
71503;SDS011;59323;50.874;7.028;2023-09-18T15:34:33;4.40;;;1.45;;
71503;SDS011;59323;50.874;7.028;2023-09-18T15:40:50;4.97;;;1.80;;
71503;SDS011;59323;50.874;7.028;2023-09-18T15:46:11;4.53;;;1.55;;
71503;SDS011;59323;50.874;7.028;2023-09-18T15:58:18;3.08;;;1.40;;
71503;SDS011;59323;50.874;7.028;2023-09-18T16:01:06;4.00;;;1.70;;
71503;SDS011;59323;50.874;7.028;2023-09-18T16:07:12;3.95;;;1.67;;
71503;SDS011;59323;50.874;7.028;2023-09-18T16:13:03;6.47;;;2.25;;
71503;SDS011;59323;50.874;7.028;2023-09-18T16:15:31;3.75;;;1.55;;
71503;SDS011;59323;50.874;7.028;2023-09-18T16:18:06;6.45;;;2.00;;
71503;SDS011;59323;50.874;7.028;2023-09-18T16:26:02;3.83;;;1.63;;
71503;SDS011;59323;50.874;7.028;2023-09-18T16:28:33;4.38;;;1.85;;
71503;SDS011;59323;50.874;7.028;2023-09-18T16:31:04;4.72;;;1.60;;
71503;SDS011;59323;50.874;7.028;2023-09-18T16:33:36;3.20;;;1.10;;
71503;SDS011;59323;50.874;7.028;2023-09-18T16:39:18;6.97;;;1.45;;
71503;SDS011;59323;50.874;7.028;2023-09-18T16:44:29;7.15;;;1.63;;
71503;SDS011;59323;50.874;7.028;2023-09-18T16:47:38;4.70;;;1.63;;
71503;SDS011;59323;50.874;7.028;2023-09-18T16:53:06;3.53;;;1.40;;
71503;SDS011;59323;50.874;7.028;2023-09-18T16:59:26;3.78;;;1.60;;
71503;SDS011;59323;50.874;7.028;2023-09-18T17:02:13;4.38;;;1.75;;
71503;SDS011;59323;50.874;7.028;2023-09-18T17:05:52;4.33;;;1.50;;